Time,TemperatureF,DewpointF,PressureIn,WindDirection,WindDirectionDegrees,WindSpeedMPH,WindSpeedGustMPH,Humidity,HourlyPrecipIn,Conditions,Clouds,dailyrainin,SoftwareType,DateUTC
2013-02-22 00:00:00,19.9,11.4,30.15,NE,56,5.8,5.8,69,0.00,CLR,,0.00,WeatherDisplay:10.37,2013-02-22 06:00:00,
2013-02-22 00:05:00,19.8,11.3,30.15,NE,48,5.8,5.8,69,0.00,CLR,,0.00,WeatherDisplay:10.37,2013-02-22 06:05:00,
2013-02-22 00:10:00,19.9,11.7,30.14,NE,36,10.4,10.4,70,0.00,CLR,,0.00,WeatherDisplay:10.37,2013-02-22 06:10:00,
2013-02-22 00:15:00,19.9,12.0,30.14,ENE,65,4.0,4.0,71,0.00,CLR,,0.00,WeatherDisplay:10.37,2013-02-22 06:15:00,
2013-02-22 00:20:00,20.0,12.4,30.14,ENE,74,10.4,10.4,72,0.00,CLR,,0.00,WeatherDisplay:10.37,2013-02-22 06:20:00,
2013-02-22 00:25:00,20.2,12.6,30.14,East,88,16.1,16.1,72,0.00,CLR,,0.00,WeatherDisplay:10.37,2013-02-22 06:25:00,
2013-02-22 00:30:00,20.2,12.9,30.14,ENE,74,4.0,4.0,73,0.00,CLR,,0.00,WeatherDisplay:10.37,2013-02-22 06:30:00,
2013-02-22 00:35:00,20.4,12.8,30.14,ENE,77,6.9,6.9,72,0.00,CLR,,0.00,WeatherDisplay:10.37,2013-02-22 06:35:00,
2013-02-22 00:40:00,20.4,12.8,30.13,ENE,65,6.9,6.9,72,0.00,CLR,,0.00,WeatherDisplay:10.37,2013-02-22 06:40:00,
2013-02-22 00:45:00,20.4,13.1,30.13,ENE,64,11.5,11.5,73,0.00,CLR,,0.00,WeatherDisplay:10.37,2013-02-22 06:45:00,
2013-02-22 00:50:00,20.2,13.8,30.13,East,82,11.5,11.5,76,0.00,CLR,,0.00,WeatherDisplay:10.37,2013-02-22 06:50:00,
2013-02-22 00:55:00,19.7,14.2,30.13,ENE,62,5.0,5.0,79,0.00,CLR,,0.00,WeatherDisplay:10.37,2013-02-22 06:55:00,
2013-02-22 01:00:00,19.6,15.0,30.12,ENE,68,6.9,6.9,82,0.00,CLR,,0.00,WeatherDisplay:10.37,2013-02-22 07:00:00,
2013-02-22 01:05:00,19.4,15.1,30.12,ENE,59,16.1,16.1,83,0.00,CLR,,0.00,WeatherDisplay:10.37,2013-02-22 07:05:00,
2013-02-22 01:10:00,19.5,15.5,30.11,ENE,75,5.8,5.8,84,0.00,CLR,,0.00,WeatherDisplay:10.37,2013-02-22 07:10:00,
2013-02-22 01:15:00,19.5,15.7,30.11,ENE,71,18.4,18.4,85,0.00,CLR,,0.00,WeatherDisplay:10.37,2013-02-22 07:15:00,
2013-02-22 01:20:00,19.5,15.7,30.11,East,88,9.2,9.2,85,0.00,CLR,,0.00,WeatherDisplay:10.37,2013-02-22 07:20:00,
2013-02-22 01:25:00,19.5,16.0,30.10,NNE,32,6.9,6.9,86,0.00,CLR,,0.00,WeatherDisplay:10.37,2013-02-22 07:25:00,
2013-02-22 01:30:00,19.5,16.0,30.10,East,82,6.9,6.9,86,0.00,CLR,,0.00,WeatherDisplay:10.37,2013-02-22 07:30:00,
2013-02-22 01:35:00,19.5,16.3,30.09,ENE,67,9.2,9.2,87,0.00,CLR,,0.00,WeatherDisplay:10.37,2013-02-22 07:35:00,
2013-02-22 01:40:00,19.5,16.3,30.09,ENE,61,3.5,3.5,87,0.00,CLR,,0.00,WeatherDisplay:10.37,2013-02-22 07:40:00,
2013-02-22 01:45:00,19.5,16.3,30.09,ENE,64,3.5,3.5,87,0.00,CLR,,0.00,WeatherDisplay:10.37,2013-02-22 07:45:00,
2013-02-22 01:50:00,19.5,16.3,30.08,NE,56,4.6,4.6,87,0.00,CLR,,0.00,WeatherDisplay:10.37,2013-02-22 07:50:00,
2013-02-22 01:55:00,19.6,16.4,30.08,ENE,66,5.8,5.8,87,0.00,CLR,,0.00,WeatherDisplay:10.37,2013-02-22 07:55:00,
2013-02-22 02:00:00,19.6,16.4,30.08,ENE,63,11.5,11.5,87,0.00,CLR,,0.00,WeatherDisplay:10.37,2013-02-22 08:00:00,
2013-02-22 02:05:00,19.6,16.4,30.08,East,79,3.5,3.5,87,0.00,CLR,,0.00,WeatherDisplay:10.37,2013-02-22 08:05:00,
2013-02-22 02:10:00,19.7,16.7,30.08,ENE,59,4.6,4.8,88,0.00,CLR,,0.00,WeatherDisplay:10.37,2013-02-22 08:10:00,
2013-02-22 02:15:00,19.7,16.7,30.08,ENE,67,5.8,5.8,88,0.00,CLR,,0.00,WeatherDisplay:10.37,2013-02-22 08:15:00,
2013-02-22 02:21:00,19.7,16.7,30.08,East,98,4.6,4.6,88,0.00,CLR,,0.00,WeatherDisplay:10.37,2013-02-22 08:21:00,
2013-02-22 02:26:00,19.7,16.7,30.08,ENE,61,4.6,4.6,88,0.00,CLR,,0.00,WeatherDisplay:10.37,2013-02-22 08:26:00,
2013-02-22 02:31:00,19.8,16.8,30.07,ENE,57,3.5,3.5,88,0.00,CLR,,0.00,WeatherDisplay:10.37,2013-02-22 08:31:00,
2013-02-22 02:36:00,19.9,16.9,30.07,NE,44,6.9,6.9,88,0.00,CLR,,0.00,WeatherDisplay:10.37,2013-02-22 08:36:00,
2013-02-22 02:41:00,19.9,16.9,30.06,NE,52,3.5,3.5,88,0.00,CLR,,0.00,WeatherDisplay:10.37,2013-02-22 08:41:00,
2013-02-22 02:46:00,20.0,17.0,30.06,ENE,71,3.5,3.5,88,0.00,CLR,,0.00,WeatherDisplay:10.37,2013-02-22 08:46:00,
2013-02-22 02:51:00,20.0,17.0,30.07,ENE,72,4.6,4.6,88,0.00,CLR,,0.00,WeatherDisplay:10.37,2013-02-22 08:51:00,
2013-02-22 02:56:00,20.1,17.1,30.07,ENE,61,3.5,3.5,88,0.00,CLR,,0.00,WeatherDisplay:10.37,2013-02-22 08:56:00,
2013-02-22 03:01:00,20.0,17.0,30.07,ENE,67,2.3,2.3,88,0.00,CLR,,0.00,WeatherDisplay:10.37,2013-02-22 09:01:00,
2013-02-22 03:06:00,20.1,17.1,30.07,ENE,58,0.0,0.0,88,0.00,CLR,,0.00,WeatherDisplay:10.37,2013-02-22 09:06:00,
2013-02-22 03:11:00,20.1,17.1,30.07,NE,43,0.0,0.0,88,0.00,CLR,,0.00,WeatherDisplay:10.37,2013-02-22 09:11:00,
2013-02-22 03:16:00,19.7,16.7,30.07,NE,40,3.5,3.5,88,0.00,CLR,,0.00,WeatherDisplay:10.37,2013-02-22 09:16:00,
2013-02-22 03:21:00,19.7,16.7,30.06,NE,49,3.5,3.5,88,0.00,CLR,,0.00,WeatherDisplay:10.37,2013-02-22 09:21:00,
2013-02-22 03:26:00,19.5,16.5,30.06,NE,56,3.5,3.5,88,0.00,CLR,,0.00,WeatherDisplay:10.37,2013-02-22 09:26:00,
2013-02-22 03:31:00,19.3,16.3,30.06,NE,36,2.3,2.3,88,0.00,CLR,,0.00,WeatherDisplay:10.37,2013-02-22 09:31:00,
2013-02-22 03:36:00,19.3,16.3,30.06,NE,47,0.0,0.0,88,0.00,CLR,,0.00,WeatherDisplay:10.37,2013-02-22 09:36:00,
2013-02-22 03:41:00,19.2,16.2,30.05,NNE,28,0.0,0.0,88,0.00,CLR,,0.00,WeatherDisplay:10.37,2013-02-22 09:41:00,
2013-02-22 03:46:00,19.1,16.1,30.04,NNE,12,3.5,3.5,88,0.00,CLR,,0.00,WeatherDisplay:10.37,2013-02-22 09:46:00,
2013-02-22 03:51:00,19.0,16.0,30.04,North,5,3.5,3.5,88,0.00,CLR,,0.00,WeatherDisplay:10.37,2013-02-22 09:51:00,
2013-02-22 03:56:00,18.9,15.9,30.04,North,10,0.0,0.0,88,0.00,CLR,,0.00,WeatherDisplay:10.37,2013-02-22 09:56:00,
2013-02-22 04:01:00,18.9,15.9,30.04,NNE,32,3.5,3.5,88,0.00,CLR,,0.00,WeatherDisplay:10.37,2013-02-22 10:01:00,
2013-02-22 04:06:00,18.8,15.8,30.04,NE,55,4.6,4.6,88,0.00,CLR,,0.00,WeatherDisplay:10.37,2013-02-22 10:06:00,
2013-02-22 04:11:00,18.8,15.8,30.04,NE,42,3.5,3.5,88,0.00,CLR,,0.00,WeatherDisplay:10.37,2013-02-22 10:11:00,
2013-02-22 04:16:00,18.8,15.8,30.04,NE,36,3.5,3.5,88,0.00,CLR,,0.00,WeatherDisplay:10.37,2013-02-22 10:16:00,
2013-02-22 04:21:00,18.8,15.8,30.04,NNE,23,3.5,3.5,88,0.00,CLR,,0.00,WeatherDisplay:10.37,2013-02-22 10:21:00,
2013-02-22 04:26:00,18.9,15.9,30.03,NE,46,2.3,2.3,88,0.00,CLR,,0.00,WeatherDisplay:10.37,2013-02-22 10:26:00,
2013-02-22 04:31:00,18.9,16.2,30.03,NE,38,2.3,2.3,89,0.00,CLR,,0.00,WeatherDisplay:10.37,2013-02-22 10:31:00,
2013-02-22 04:36:00,18.9,16.2,30.03,NE,34,2.3,2.3,89,0.00,CLR,,0.00,WeatherDisplay:10.37,2013-02-22 10:36:00,
2013-02-22 04:41:00,18.9,16.2,30.03,NE,44,2.3,2.3,89,0.00,CLR,,0.00,WeatherDisplay:10.37,2013-02-22 10:41:00,
2013-02-22 04:46:00,19.0,16.3,30.03,NNE,33,3.5,3.5,89,0.00,CLR,,0.00,WeatherDisplay:10.37,2013-02-22 10:46:00,
2013-02-22 04:51:00,19.1,16.4,30.03,ENE,74,3.5,3.5,89,0.00,CLR,,0.00,WeatherDisplay:10.37,2013-02-22 10:51:00,
2013-02-22 04:56:00,19.0,16.3,30.03,NNE,32,3.5,3.5,89,0.00,CLR,,0.00,WeatherDisplay:10.37,2013-02-22 10:56:00,
2013-02-22 05:01:00,19.1,16.4,30.02,NE,47,0.0,0.0,89,0.00,CLR,,0.00,WeatherDisplay:10.37,2013-02-22 11:01:00,
2013-02-22 05:06:00,19.3,16.6,30.02,NNE,26,1.2,0.0,89,0.00,CLR,,0.00,WeatherDisplay:10.37,2013-02-22 11:06:00,
2013-02-22 05:11:00,19.5,16.8,30.02,ENE,71,0.0,0.0,89,0.00,CLR,,0.00,WeatherDisplay:10.37,2013-02-22 11:11:00,
2013-02-22 05:16:00,19.6,16.9,30.02,NNE,32,0.0,0.0,89,0.00,CLR,,0.00,WeatherDisplay:10.37,2013-02-22 11:16:00,
2013-02-22 05:21:00,19.6,16.9,30.02,ENE,75,2.0,2.0,89,0.00,CLR,,0.00,WeatherDisplay:10.37,2013-02-22 11:21:00,
2013-02-22 05:26:00,19.6,16.9,30.02,NE,55,0.0,0.0,89,0.00,CLR,,0.00,WeatherDisplay:10.37,2013-02-22 11:26:00,
2013-02-22 05:31:00,19.5,16.8,30.02,NE,37,3.5,3.5,89,0.00,CLR,,0.00,WeatherDisplay:10.37,2013-02-22 11:31:00,
2013-02-22 05:36:00,19.6,16.9,30.02,NNE,26,2.3,2.3,89,0.00,CLR,,0.00,WeatherDisplay:10.37,2013-02-22 11:36:00,
2013-02-22 05:41:00,19.7,17.0,30.02,NE,34,3.5,0.0,89,0.00,CLR,,0.00,WeatherDisplay:10.37,2013-02-22 11:41:00,
2013-02-22 05:46:00,19.6,16.9,30.02,NNE,26,0.0,0.0,89,0.00,CLR,,0.00,WeatherDisplay:10.37,2013-02-22 11:46:00,
2013-02-22 05:51:00,19.6,16.9,30.01,NNE,22,3.5,3.5,89,0.00,CLR,,0.00,WeatherDisplay:10.37,2013-02-22 11:51:00,
2013-02-22 05:56:00,19.5,16.8,30.01,NNE,17,3.5,3.5,89,0.00,CLR,,0.00,WeatherDisplay:10.37,2013-02-22 11:56:00,
2013-02-22 06:01:00,19.6,16.9,30.01,NE,52,3.5,3.5,89,0.00,CLR,,0.00,WeatherDisplay:10.37,2013-02-22 12:01:00,
2013-02-22 06:06:00,19.6,16.9,30.01,NNE,30,3.5,3.5,89,0.00,CLR,,0.00,WeatherDisplay:10.37,2013-02-22 12:06:00,
2013-02-22 06:11:00,19.7,17.0,30.01,NNE,22,3.5,3.5,89,0.00,CLR,,0.00,WeatherDisplay:10.37,2013-02-22 12:11:00,
2013-02-22 06:16:00,19.7,17.0,30.01,ENE,63,1.2,1.2,89,0.00,CLR,,0.00,WeatherDisplay:10.37,2013-02-22 12:16:00,
2013-02-22 06:21:00,19.7,17.0,30.01,NE,43,3.5,3.5,89,0.00,CLR,,0.00,WeatherDisplay:10.37,2013-02-22 12:21:00,
2013-02-22 06:26:00,19.7,17.0,30.00,NNE,25,2.3,2.3,89,0.00,CLR,,0.00,WeatherDisplay:10.37,2013-02-22 12:26:00,
2013-02-22 06:31:00,19.7,17.0,30.01,NNE,25,4.0,4.0,89,0.00,CLR,,0.00,WeatherDisplay:10.37,2013-02-22 12:31:00,
2013-02-22 06:36:00,19.7,17.0,30.01,NNE,30,2.3,2.3,89,0.00,CLR,,0.00,WeatherDisplay:10.37,2013-02-22 12:36:00,
2013-02-22 06:42:00,19.7,17.0,30.00,NNE,14,3.0,3.0,89,0.00,CLR,,0.00,WeatherDisplay:10.37,2013-02-22 12:42:00,
2013-02-22 06:47:00,19.7,17.0,30.01,NE,36,3.5,3.5,89,0.00,CLR,,0.00,WeatherDisplay:10.37,2013-02-22 12:47:00,
2013-02-22 06:52:00,19.7,17.0,30.00,NNE,32,3.5,3.5,89,0.00,CLR,,0.00,WeatherDisplay:10.37,2013-02-22 12:52:00,
2013-02-22 06:57:00,19.7,17.0,30.00,NNE,18,3.5,3.5,89,0.00,CLR,,0.00,WeatherDisplay:10.37,2013-02-22 12:57:00,
2013-02-22 07:02:00,19.7,17.0,30.00,NNE,32,3.5,3.5,89,0.00,CLR,,0.00,WeatherDisplay:10.37,2013-02-22 13:02:00,
2013-02-22 07:07:00,19.7,17.0,30.01,NNE,13,3.5,3.5,89,0.00,CLR,,0.00,WeatherDisplay:10.37,2013-02-22 13:07:00,
2013-02-22 07:12:00,19.7,17.0,30.00,NNE,21,3.5,3.5,89,0.00,CLR,,0.00,WeatherDisplay:10.37,2013-02-22 13:12:00,
2013-02-22 07:17:00,19.7,17.0,30.00,NE,40,1.2,1.2,89,0.00,CLR,,0.00,WeatherDisplay:10.37,2013-02-22 13:17:00,
2013-02-22 07:22:00,19.7,17.0,30.00,North,360,3.5,3.5,89,0.00,CLR,,0.00,WeatherDisplay:10.37,2013-02-22 13:22:00,
2013-02-22 07:27:00,19.8,17.1,30.00,NNE,22,3.5,3.5,89,0.00,CLR,,0.00,WeatherDisplay:10.37,2013-02-22 13:27:00,
2013-02-22 07:32:00,19.8,17.1,30.00,NE,41,2.3,2.3,89,0.00,CLR,,0.00,WeatherDisplay:10.37,2013-02-22 13:32:00,
2013-02-22 07:37:00,19.9,17.2,30.00,NNE,19,3.5,3.5,89,0.00,CLR,,0.00,WeatherDisplay:10.37,2013-02-22 13:37:00,
2013-02-22 07:42:00,19.9,17.2,30.00,NE,43,3.5,3.5,89,0.00,CLR,,0.00,WeatherDisplay:10.37,2013-02-22 13:42:00,
2013-02-22 07:47:00,19.9,17.2,29.99,NNE,22,3.5,3.5,89,0.00,CLR,,0.00,WeatherDisplay:10.37,2013-02-22 13:47:00,
2013-02-22 07:52:00,19.9,17.2,29.99,NNE,28,3.5,3.5,89,0.00,CLR,,0.00,WeatherDisplay:10.37,2013-02-22 13:52:00,
2013-02-22 07:57:00,20.0,17.3,29.99,NNE,26,1.2,1.2,89,0.00,CLR,,0.00,WeatherDisplay:10.37,2013-02-22 13:57:00,
2013-02-22 08:02:00,20.0,17.3,29.99,NNE,16,3.5,3.5,89,0.00,CLR,,0.00,WeatherDisplay:10.37,2013-02-22 14:02:00,
2013-02-22 08:07:00,20.0,17.3,29.99,NNE,20,3.5,3.5,89,0.00,CLR,,0.00,WeatherDisplay:10.37,2013-02-22 14:07:00,
2013-02-22 08:12:00,20.0,17.3,29.99,NNE,29,3.5,3.5,89,0.00,CLR,,0.00,WeatherDisplay:10.37,2013-02-22 14:12:00,
2013-02-22 08:17:00,20.0,17.3,29.99,NNE,16,3.5,3.5,89,0.00,CLR,,0.00,WeatherDisplay:10.37,2013-02-22 14:17:00,
2013-02-22 08:22:00,20.0,17.3,29.99,NNE,25,2.3,2.3,89,0.00,CLR,,0.00,WeatherDisplay:10.37,2013-02-22 14:22:00,
2013-02-22 08:27:00,20.0,17.3,29.99,NNE,24,3.5,3.5,89,0.00,CLR,,0.00,WeatherDisplay:10.37,2013-02-22 14:27:00,
2013-02-22 08:32:00,20.1,17.4,29.99,NNE,28,3.5,3.5,89,0.00,CLR,,0.00,WeatherDisplay:10.37,2013-02-22 14:32:00,
2013-02-22 08:37:00,20.1,17.4,29.99,NNE,15,3.5,3.5,89,0.00,CLR,,0.00,WeatherDisplay:10.37,2013-02-22 14:37:00,
2013-02-22 08:42:00,20.2,17.5,29.99,North,355,2.3,2.3,89,0.00,CLR,,0.00,WeatherDisplay:10.37,2013-02-22 14:42:00,
2013-02-22 08:47:00,20.3,17.6,29.99,NE,43,3.5,0.0,89,0.00,CLR,,0.00,WeatherDisplay:10.37,2013-02-22 14:47:00,
2013-02-22 08:52:00,20.4,17.7,29.99,NE,41,4.6,4.6,89,0.00,CLR,,0.00,WeatherDisplay:10.37,2013-02-22 14:52:00,
2013-02-22 08:57:00,20.5,17.8,29.98,North,5,3.5,3.5,89,0.00,CLR,,0.00,WeatherDisplay:10.37,2013-02-22 14:57:00,
2013-02-22 09:03:00,20.5,17.8,29.98,North,5,6.9,6.9,89,0.00,CLR,,0.00,WeatherDisplay:10.37,2013-02-22 15:03:00,
2013-02-22 09:08:00,20.7,18.0,29.98,North,360,2.3,0.0,89,0.00,CLR,,0.00,WeatherDisplay:10.37,2013-02-22 15:08:00,
2013-02-22 09:13:00,20.7,18.0,29.98,NE,37,3.5,3.5,89,0.00,CLR,,0.00,WeatherDisplay:10.37,2013-02-22 15:13:00,
2013-02-22 09:18:00,20.7,18.0,29.98,NE,51,4.6,4.6,89,0.00,CLR,,0.00,WeatherDisplay:10.37,2013-02-22 15:18:00,
2013-02-22 09:23:00,20.8,18.1,29.98,NNE,25,4.6,4.6,89,0.00,CLR,,0.00,WeatherDisplay:10.37,2013-02-22 15:23:00,
2013-02-22 09:28:00,20.9,18.2,29.98,NNE,32,4.6,4.6,89,0.00,CLR,,0.00,WeatherDisplay:10.37,2013-02-22 15:28:00,
2013-02-22 09:33:00,21.1,18.4,29.98,NNE,24,3.5,3.5,89,0.00,CLR,,0.00,WeatherDisplay:10.37,2013-02-22 15:33:00,
2013-02-22 09:38:00,21.3,18.6,29.98,NNE,15,3.5,3.5,89,0.00,CLR,,0.00,WeatherDisplay:10.37,2013-02-22 15:38:00,
2013-02-22 09:43:00,21.4,18.7,29.98,NNE,30,3.5,3.5,89,0.00,CLR,,0.00,WeatherDisplay:10.37,2013-02-22 15:43:00,
2013-02-22 09:48:00,21.6,18.9,29.98,NE,56,3.5,3.5,89,0.00,CLR,,0.00,WeatherDisplay:10.37,2013-02-22 15:48:00,
2013-02-22 09:53:00,21.5,18.8,29.98,North,11,3.5,3.5,89,0.00,CLR,,0.00,WeatherDisplay:10.37,2013-02-22 15:53:00,
2013-02-22 09:58:00,21.5,18.8,29.98,NNE,28,3.5,3.5,89,0.00,CLR,,0.00,WeatherDisplay:10.37,2013-02-22 15:58:00,
2013-02-22 10:03:00,21.5,18.8,29.98,NE,35,0.0,0.0,89,0.00,CLR,,0.00,WeatherDisplay:10.37,2013-02-22 16:03:00,
2013-02-22 10:08:00,21.7,19.0,29.98,ENE,63,5.8,5.8,89,0.00,CLR,,0.00,WeatherDisplay:10.37,2013-02-22 16:08:00,
2013-02-22 10:13:00,21.8,19.1,29.97,NNE,19,2.3,2.3,89,0.00,CLR,,0.00,WeatherDisplay:10.37,2013-02-22 16:13:00,
2013-02-22 10:18:00,22.0,19.3,29.98,NE,50,3.5,3.5,89,0.00,CLR,,0.00,WeatherDisplay:10.37,2013-02-22 16:18:00,
2013-02-22 10:23:00,22.1,19.4,29.97,NNE,24,5.8,5.8,89,0.00,CLR,,0.00,WeatherDisplay:10.37,2013-02-22 16:23:00,
2013-02-22 10:28:00,22.2,19.5,29.97,NNE,15,2.3,2.3,89,0.00,CLR,,0.00,WeatherDisplay:10.37,2013-02-22 16:28:00,
2013-02-22 10:33:00,22.5,19.7,29.97,NNE,22,3.5,3.5,89,0.00,CLR,,0.00,WeatherDisplay:10.37,2013-02-22 16:33:00,
2013-02-22 10:38:00,22.8,20.0,29.97,North,9,3.5,3.5,89,0.00,CLR,,0.00,WeatherDisplay:10.37,2013-02-22 16:38:00,
2013-02-22 10:43:00,23.2,20.4,29.97,NNE,13,9.2,9.2,89,0.00,CLR,,0.00,WeatherDisplay:10.37,2013-02-22 16:43:00,
2013-02-22 10:48:00,23.2,20.2,29.97,NNE,22,3.5,3.5,88,0.00,CLR,,0.00,WeatherDisplay:10.37,2013-02-22 16:48:00,
2013-02-22 10:53:00,23.3,20.3,29.97,NNE,28,5.8,5.8,88,0.00,CLR,,0.00,WeatherDisplay:10.37,2013-02-22 16:53:00,
2013-02-22 10:58:00,23.4,20.4,29.97,North,5,3.5,3.5,88,0.00,CLR,,0.00,WeatherDisplay:10.37,2013-02-22 16:58:00,
2013-02-22 11:03:00,23.6,20.6,29.97,NNE,14,3.5,3.5,88,0.00,CLR,,0.00,WeatherDisplay:10.37,2013-02-22 17:03:00,
2013-02-22 11:08:00,23.8,20.8,29.97,North,5,3.5,3.5,88,0.00,CLR,,0.00,WeatherDisplay:10.37,2013-02-22 17:08:00,
2013-02-22 11:13:00,23.9,20.9,29.97,NNE,29,3.5,3.5,88,0.00,CLR,,0.00,WeatherDisplay:10.37,2013-02-22 17:13:00,
2013-02-22 11:18:00,23.9,20.9,29.97,North,5,5.8,5.8,88,0.00,CLR,,0.00,WeatherDisplay:10.37,2013-02-22 17:18:00,
2013-02-22 11:23:00,23.9,20.9,29.97,NE,34,4.6,4.6,88,0.00,CLR,,0.00,WeatherDisplay:10.37,2013-02-22 17:23:00,
2013-02-22 11:28:00,23.9,20.9,29.97,NNE,18,3.5,3.5,88,0.00,CLR,,0.00,WeatherDisplay:10.37,2013-02-22 17:28:00,
2013-02-22 11:33:00,23.9,20.9,29.97,NNE,28,3.5,3.5,88,0.00,CLR,,0.00,WeatherDisplay:10.37,2013-02-22 17:33:00,
2013-02-22 11:38:00,23.8,20.5,29.97,North,9,5.8,5.8,87,0.00,CLR,,0.00,WeatherDisplay:10.37,2013-02-22 17:38:00,
2013-02-22 11:43:00,23.9,20.6,29.97,NE,52,4.6,4.6,87,0.00,CLR,,0.00,WeatherDisplay:10.37,2013-02-22 17:43:00,
2013-02-22 11:48:00,24.0,20.7,29.96,ENE,60,3.5,3.5,87,0.00,CLR,,0.00,WeatherDisplay:10.37,2013-02-22 17:48:00,
2013-02-22 11:53:00,24.1,20.8,29.96,NNE,13,3.5,3.5,87,0.00,CLR,,0.00,WeatherDisplay:10.37,2013-02-22 17:53:00,
2013-02-22 11:58:00,24.2,20.9,29.97,NE,36,3.5,3.5,87,0.00,CLR,,0.00,WeatherDisplay:10.37,2013-02-22 17:58:00,
2013-02-22 12:03:00,24.3,21.0,29.96,NE,43,3.5,3.5,87,0.00,CLR,,0.00,WeatherDisplay:10.37,2013-02-22 18:03:00,
2013-02-22 12:08:00,24.4,21.1,29.96,NNE,24,3.5,3.5,87,0.00,CLR,,0.00,WeatherDisplay:10.37,2013-02-22 18:08:00,
2013-02-22 12:13:00,24.5,21.2,29.96,NE,49,4.6,4.6,87,0.00,CLR,,0.00,WeatherDisplay:10.37,2013-02-22 18:13:00,
2013-02-22 12:18:00,24.5,21.2,29.96,NE,38,0.0,0.0,87,0.00,CLR,,0.00,WeatherDisplay:10.37,2013-02-22 18:18:00,
2013-02-22 12:23:00,24.6,21.3,29.96,NNE,26,3.5,3.5,87,0.00,CLR,,0.00,WeatherDisplay:10.37,2013-02-22 18:23:00,
2013-02-22 12:28:00,24.8,21.5,29.95,NE,34,0.0,0.0,87,0.00,CLR,,0.00,WeatherDisplay:10.37,2013-02-22 18:28:00,
2013-02-22 12:33:00,24.8,21.5,29.95,North,349,3.5,3.5,87,0.00,CLR,,0.00,WeatherDisplay:10.37,2013-02-22 18:33:00,
2013-02-22 12:38:00,24.8,21.2,29.95,NNW,342,4.6,4.6,86,0.00,CLR,,0.00,WeatherDisplay:10.37,2013-02-22 18:38:00,
2013-02-22 12:43:00,24.6,21.0,29.95,NNE,30,1.2,0.0,86,0.00,CLR,,0.00,WeatherDisplay:10.37,2013-02-22 18:43:00,
2013-02-22 12:48:00,24.6,21.0,29.95,NNE,15,0.0,0.0,86,0.00,CLR,,0.00,WeatherDisplay:10.37,2013-02-22 18:48:00,
2013-02-22 12:53:00,24.5,20.9,29.95,North,360,2.0,2.0,86,0.00,CLR,,0.00,WeatherDisplay:10.37,2013-02-22 18:53:00,
2013-02-22 12:58:00,24.6,21.0,29.94,North,9,0.0,0.0,86,0.00,CLR,,0.00,WeatherDisplay:10.37,2013-02-22 18:58:00,
2013-02-22 13:03:00,25.0,21.4,29.94,North,9,0.0,0.0,86,0.00,CLR,,0.00,WeatherDisplay:10.37,2013-02-22 19:03:00,
2013-02-22 13:08:00,25.5,21.9,29.94,North,9,0.0,0.0,86,0.00,CLR,,0.00,WeatherDisplay:10.37,2013-02-22 19:08:00,
2013-02-22 13:13:00,25.6,21.7,29.94,NNE,15,5.8,5.8,85,0.01,RA,,0.01,WeatherDisplay:10.37,2013-02-22 19:13:00,
2013-02-22 13:18:00,25.4,21.5,29.94,North,360,0.0,0.0,85,0.02,RA,,0.02,WeatherDisplay:10.37,2013-02-22 19:18:00,
2013-02-22 13:23:00,25.5,21.6,29.94,North,360,0.0,0.0,85,0.02,RA,,0.02,WeatherDisplay:10.37,2013-02-22 19:23:00,
2013-02-22 13:28:00,25.4,21.5,29.94,North,360,0.0,0.1,85,0.03,RA,,0.03,WeatherDisplay:10.37,2013-02-22 19:28:00,
2013-02-22 13:33:00,25.3,21.4,29.94,North,360,1.2,2.0,85,0.03,RA,,0.03,WeatherDisplay:10.37,2013-02-22 19:33:00,
2013-02-22 13:38:00,25.1,21.2,29.94,North,360,3.5,0.0,85,0.03,CLR,,0.03,WeatherDisplay:10.37,2013-02-22 19:38:00,
2013-02-22 13:44:00,24.9,21.0,29.93,North,360,0.0,0.0,85,0.03,CLR,,0.03,WeatherDisplay:10.37,2013-02-22 19:44:00,
2013-02-22 13:49:00,24.9,21.0,29.93,North,360,0.0,0.0,85,0.04,RA,,0.04,WeatherDisplay:10.37,2013-02-22 19:49:00,
2013-02-22 13:54:00,25.1,21.2,29.93,North,360,0.0,0.0,85,0.04,RA,,0.04,WeatherDisplay:10.37,2013-02-22 19:54:00,
2013-02-22 13:59:00,25.3,21.7,29.93,North,360,0.0,0.0,86,0.04,CLR,,0.04,WeatherDisplay:10.37,2013-02-22 19:59:00,
2013-02-22 14:04:00,25.6,22.0,29.93,North,360,0.0,0.0,86,0.04,CLR,,0.04,WeatherDisplay:10.37,2013-02-22 20:04:00,
2013-02-22 14:09:00,25.6,21.7,29.93,North,360,0.0,0.0,85,0.04,CLR,,0.04,WeatherDisplay:10.37,2013-02-22 20:09:00,
2013-02-22 14:14:00,25.7,21.8,29.93,North,360,0.0,0.0,85,0.03,CLR,,0.04,WeatherDisplay:10.37,2013-02-22 20:14:00,
2013-02-22 14:19:00,25.6,21.4,29.93,North,360,0.0,0.0,84,0.02,CLR,,0.04,WeatherDisplay:10.37,2013-02-22 20:19:00,
2013-02-22 14:24:00,25.4,21.2,29.93,NNW,344,3.5,3.5,84,0.03,RA,,0.05,WeatherDisplay:10.37,2013-02-22 20:24:00,
2013-02-22 14:29:00,25.1,20.7,29.93,NNW,340,0.0,0.0,83,0.02,RA,,0.05,WeatherDisplay:10.37,2013-02-22 20:29:00,
2013-02-22 14:34:00,25.2,21.0,29.93,NNW,340,0.0,0.0,84,0.02,CLR,,0.05,WeatherDisplay:10.37,2013-02-22 20:34:00,
2013-02-22 14:39:00,25.3,20.9,29.93,NNE,26,3.5,3.5,83,0.02,CLR,,0.05,WeatherDisplay:10.37,2013-02-22 20:39:00,
2013-02-22 14:44:00,25.3,20.9,29.93,North,355,0.0,0.0,83,0.02,CLR,,0.05,WeatherDisplay:10.37,2013-02-22 20:44:00,
2013-02-22 14:49:00,25.2,20.8,29.93,North,360,0.0,0.0,83,0.01,CLR,,0.05,WeatherDisplay:10.37,2013-02-22 20:49:00,
2013-02-22 14:54:00,25.3,20.9,29.93,North,360,0.0,0.0,83,0.01,CLR,,0.05,WeatherDisplay:10.37,2013-02-22 20:54:00,
2013-02-22 14:59:00,25.3,20.9,29.93,North,360,3.5,0.0,83,0.01,CLR,,0.05,WeatherDisplay:10.37,2013-02-22 20:59:00,
2013-02-22 15:04:00,25.2,20.2,29.93,North,355,2.3,2.3,81,0.01,CLR,,0.05,WeatherDisplay:10.37,2013-02-22 21:04:00,
2013-02-22 15:09:00,25.1,20.4,29.93,NNW,344,3.5,3.5,82,0.01,CLR,,0.05,WeatherDisplay:10.37,2013-02-22 21:09:00,
2013-02-22 15:14:00,25.0,20.0,29.93,NNW,336,3.5,3.5,81,0.01,CLR,,0.05,WeatherDisplay:10.37,2013-02-22 21:14:00,
2013-02-22 15:19:00,25.0,20.3,29.93,NW,316,4.6,4.6,82,0.01,CLR,,0.05,WeatherDisplay:10.37,2013-02-22 21:19:00,
2013-02-22 15:24:00,24.9,20.2,29.93,NW,315,3.5,3.5,82,0.00,CLR,,0.05,WeatherDisplay:10.37,2013-02-22 21:24:00,
2013-02-22 15:29:00,24.8,20.1,29.93,NW,319,4.6,4.6,82,0.00,CLR,,0.05,WeatherDisplay:10.37,2013-02-22 21:29:00,
2013-02-22 15:34:00,24.7,20.0,29.93,NW,319,3.5,3.5,82,0.00,CLR,,0.05,WeatherDisplay:10.37,2013-02-22 21:34:00,
2013-02-22 15:39:00,24.8,20.1,29.93,NW,319,4.6,4.6,82,0.00,CLR,,0.05,WeatherDisplay:10.37,2013-02-22 21:39:00,
2013-02-22 15:44:00,24.8,19.8,29.93,WNW,302,3.5,3.5,81,0.00,CLR,,0.05,WeatherDisplay:10.37,2013-02-22 21:44:00,
2013-02-22 15:49:00,24.8,19.8,29.93,WNW,302,4.6,4.6,81,0.01,RA,,0.06,WeatherDisplay:10.37,2013-02-22 21:49:00,
2013-02-22 15:55:00,24.8,19.8,29.94,WNW,300,4.6,4.6,81,0.01,RA,,0.06,WeatherDisplay:10.37,2013-02-22 21:55:00,
2013-02-22 16:00:00,24.8,19.8,29.94,WNW,300,3.5,3.5,81,0.01,,,0.06,WeatherDisplay:10.37,2013-02-22 22:00:00,
2013-02-22 16:05:00,24.8,19.8,29.94,WNW,293,4.6,4.6,81,0.01,CLR,,0.06,WeatherDisplay:10.37,2013-02-22 22:05:00,
2013-02-22 16:10:00,24.7,19.4,29.94,NW,309,6.9,6.9,80,0.01,CLR,,0.06,WeatherDisplay:10.37,2013-02-22 22:10:00,
2013-02-22 16:15:00,24.7,19.4,29.94,NW,315,3.5,3.5,80,0.01,CLR,,0.06,WeatherDisplay:10.37,2013-02-22 22:15:00,
2013-02-22 16:20:00,24.7,19.7,29.94,NW,315,0.0,0.0,81,0.01,CLR,,0.06,WeatherDisplay:10.37,2013-02-22 22:20:00,
2013-02-22 16:25:00,24.8,19.8,29.95,NW,315,3.5,3.5,81,0.01,CLR,,0.06,WeatherDisplay:10.37,2013-02-22 22:25:00,
2013-02-22 16:30:00,24.7,19.4,29.95,WNW,299,4.6,4.6,80,0.01,CLR,,0.06,WeatherDisplay:10.37,2013-02-22 22:30:00,
2013-02-22 16:35:00,24.6,19.3,29.95,NW,313,5.8,5.8,80,0.01,CLR,,0.06,WeatherDisplay:10.37,2013-02-22 22:35:00,
2013-02-22 16:40:00,24.6,19.3,29.95,NW,306,3.5,3.5,80,0.01,CLR,,0.06,WeatherDisplay:10.37,2013-02-22 22:40:00,
2013-02-22 16:45:00,24.5,19.5,29.95,NW,304,3.5,3.5,81,0.01,CLR,,0.06,WeatherDisplay:10.37,2013-02-22 22:45:00,
2013-02-22 16:50:00,24.5,19.5,29.95,WNW,287,5.8,5.8,81,0.00,CLR,,0.06,WeatherDisplay:10.37,2013-02-22 22:50:00,
2013-02-22 16:55:00,24.4,19.7,29.95,WNW,296,4.6,4.6,82,0.00,CLR,,0.06,WeatherDisplay:10.37,2013-02-22 22:55:00,
2013-02-22 17:00:00,24.4,20.0,29.95,WNW,302,6.9,6.9,83,0.00,CLR,,0.06,WeatherDisplay:10.37,2013-02-22 23:00:00,
2013-02-22 17:05:00,24.2,19.8,29.95,WNW,288,8.1,8.1,83,0.00,CLR,,0.06,WeatherDisplay:10.37,2013-02-22 23:05:00,
2013-02-22 17:10:00,24.1,19.7,29.95,NW,307,4.6,4.6,83,0.00,CLR,,0.06,WeatherDisplay:10.37,2013-02-22 23:10:00,
2013-02-22 17:15:00,24.1,19.7,29.95,WNW,296,4.6,4.6,83,0.00,CLR,,0.06,WeatherDisplay:10.37,2013-02-22 23:15:00,
2013-02-22 17:20:00,24.0,19.6,29.96,WNW,294,6.9,6.9,83,0.00,CLR,,0.06,WeatherDisplay:10.37,2013-02-22 23:20:00,
2013-02-22 17:25:00,23.9,19.5,29.96,NW,317,5.8,5.8,83,0.00,CLR,,0.06,WeatherDisplay:10.37,2013-02-22 23:25:00,
2013-02-22 17:30:00,23.8,19.4,29.96,WNW,294,5.8,5.8,83,0.00,CLR,,0.06,WeatherDisplay:10.37,2013-02-22 23:30:00,
2013-02-22 17:35:00,23.7,19.3,29.96,NW,305,4.6,4.6,83,0.00,CLR,,0.06,WeatherDisplay:10.37,2013-02-22 23:35:00,
2013-02-22 17:40:00,23.6,19.5,29.96,WNW,290,10.4,10.4,84,0.00,CLR,,0.06,WeatherDisplay:10.37,2013-02-22 23:40:00,
2013-02-22 17:45:00,23.6,19.5,29.96,WNW,294,5.8,5.8,84,0.00,CLR,,0.06,WeatherDisplay:10.37,2013-02-22 23:45:00,
2013-02-22 17:50:00,23.5,19.4,29.97,WNW,286,4.6,4.6,84,0.00,CLR,,0.06,WeatherDisplay:10.37,2013-02-22 23:50:00,
2013-02-22 17:55:00,23.5,19.4,29.97,West,275,3.5,3.5,84,0.00,CLR,,0.06,WeatherDisplay:10.37,2013-02-22 23:55:00,
2013-02-22 18:00:00,23.4,19.3,29.97,NW,313,5.8,5.8,84,0.00,CLR,,0.06,WeatherDisplay:10.37,2013-02-23 00:00:00,
2013-02-22 18:05:00,23.3,19.2,29.97,West,271,5.0,5.0,84,0.00,CLR,,0.06,WeatherDisplay:10.37,2013-02-23 00:05:00,
2013-02-22 18:10:00,23.3,19.5,29.97,WNW,298,6.9,6.9,85,0.00,CLR,,0.06,WeatherDisplay:10.37,2013-02-23 00:10:00,
2013-02-22 18:15:00,23.2,19.4,29.97,NW,310,6.9,6.9,85,0.00,CLR,,0.06,WeatherDisplay:10.37,2013-02-23 00:15:00,
2013-02-22 18:20:00,23.1,19.3,29.97,NW,306,5.8,5.8,85,0.00,CLR,,0.06,WeatherDisplay:10.37,2013-02-23 00:20:00,
2013-02-22 18:25:00,23.1,19.5,29.97,WNW,290,2.3,0.0,86,0.00,CLR,,0.06,WeatherDisplay:10.37,2013-02-23 00:25:00,
2013-02-22 18:30:00,23.1,19.5,29.97,WNW,291,3.5,3.5,86,0.00,CLR,,0.06,WeatherDisplay:10.37,2013-02-23 00:30:00,
2013-02-22 18:35:00,23.0,19.4,29.97,NW,311,4.6,4.6,86,0.00,CLR,,0.06,WeatherDisplay:10.37,2013-02-23 00:35:00,
2013-02-22 18:40:00,22.9,19.3,29.97,WNW,296,5.8,5.8,86,0.00,CLR,,0.06,WeatherDisplay:10.37,2013-02-23 00:40:00,
2013-02-22 18:45:00,22.9,19.3,29.97,NW,304,4.6,4.6,86,0.00,CLR,,0.06,WeatherDisplay:10.37,2013-02-23 00:45:00,
2013-02-22 18:50:00,22.9,19.3,29.97,WNW,292,1.0,0.0,86,0.00,CLR,,0.06,WeatherDisplay:10.37,2013-02-23 00:50:00,
2013-02-22 18:55:00,22.8,19.2,29.97,West,267,4.6,4.6,86,0.00,CLR,,0.06,WeatherDisplay:10.37,2013-02-23 00:55:00,
2013-02-22 19:00:00,22.8,19.2,29.97,WNW,288,6.9,6.9,86,0.00,CLR,,0.06,WeatherDisplay:10.37,2013-02-23 01:00:00,
2013-02-22 19:05:00,22.8,19.2,29.97,West,267,3.5,3.5,86,0.00,CLR,,0.06,WeatherDisplay:10.37,2013-02-23 01:05:00,
2013-02-22 19:10:00,22.7,19.1,29.97,West,280,0.0,0.0,86,0.00,CLR,,0.06,WeatherDisplay:10.37,2013-02-23 01:10:00,
2013-02-22 19:15:00,22.7,19.1,29.97,NW,304,4.6,4.6,86,0.00,CLR,,0.06,WeatherDisplay:10.37,2013-02-23 01:15:00,
2013-02-22 19:20:00,22.7,19.1,29.96,WNW,302,3.5,3.5,86,0.00,CLR,,0.06,WeatherDisplay:10.37,2013-02-23 01:20:00,
2013-02-22 19:25:00,22.6,19.3,29.96,WNW,298,4.6,4.6,87,0.00,CLR,,0.06,WeatherDisplay:10.37,2013-02-23 01:25:00,
2013-02-22 19:30:00,22.6,19.3,29.96,WNW,294,3.5,3.5,87,0.00,CLR,,0.06,WeatherDisplay:10.37,2013-02-23 01:30:00,
2013-02-22 19:35:00,22.6,19.3,29.96,NW,307,3.5,3.5,87,0.00,CLR,,0.06,WeatherDisplay:10.37,2013-02-23 01:35:00,
2013-02-22 19:40:00,22.5,19.2,29.96,WNW,284,5.8,5.8,87,0.00,CLR,,0.06,WeatherDisplay:10.37,2013-02-23 01:40:00,
2013-02-22 19:45:00,22.5,19.2,29.96,WNW,292,4.6,4.6,87,0.00,CLR,,0.06,WeatherDisplay:10.37,2013-02-23 01:45:00,
2013-02-22 19:50:00,22.4,19.1,29.95,WNW,292,3.5,3.5,87,0.00,CLR,,0.06,WeatherDisplay:10.37,2013-02-23 01:50:00,
2013-02-22 19:55:00,22.4,19.1,29.95,WNW,288,5.8,5.8,87,0.00,CLR,,0.06,WeatherDisplay:10.37,2013-02-23 01:55:00,
2013-02-22 20:00:00,22.3,19.0,29.95,WNW,288,3.0,3.0,87,0.00,CLR,,0.06,WeatherDisplay:10.37,2013-02-23 02:00:00,
2013-02-22 20:05:00,22.2,18.9,29.95,WNW,289,3.5,3.5,87,0.00,CLR,,0.06,WeatherDisplay:10.37,2013-02-23 02:05:00,
2013-02-22 20:10:00,22.2,18.9,29.95,WNW,289,3.5,3.5,87,0.00,CLR,,0.06,WeatherDisplay:10.37,2013-02-23 02:10:00,
2013-02-22 20:15:00,22.1,18.8,29.95,WNW,288,3.5,3.5,87,0.00,CLR,,0.06,WeatherDisplay:10.37,2013-02-23 02:15:00,
2013-02-22 20:20:00,22.0,18.7,29.95,WNW,288,0.0,0.0,87,0.00,CLR,,0.06,WeatherDisplay:10.37,2013-02-23 02:20:00,
2013-02-22 20:25:00,22.0,18.7,29.95,WNW,287,3.5,3.5,87,0.00,CLR,,0.06,WeatherDisplay:10.37,2013-02-23 02:25:00,
2013-02-22 20:30:00,22.0,18.7,29.95,West,274,3.5,3.5,87,0.00,CLR,,0.06,WeatherDisplay:10.37,2013-02-23 02:30:00,
2013-02-22 20:35:00,22.0,19.0,29.95,West,277,5.8,5.8,88,0.00,CLR,,0.06,WeatherDisplay:10.37,2013-02-23 02:35:00,
2013-02-22 20:40:00,21.9,18.9,29.95,WNW,284,3.5,3.5,88,0.00,CLR,,0.06,WeatherDisplay:10.37,2013-02-23 02:40:00,
2013-02-22 20:46:00,21.8,18.5,29.95,WNW,284,4.6,4.6,87,0.00,CLR,,0.06,WeatherDisplay:10.37,2013-02-23 02:46:00,
2013-02-22 20:51:00,21.7,18.4,29.95,WNW,287,3.5,3.5,87,0.00,CLR,,0.06,WeatherDisplay:10.37,2013-02-23 02:51:00,
2013-02-22 20:56:00,21.6,18.3,29.95,WNW,287,3.5,3.5,87,0.00,CLR,,0.06,WeatherDisplay:10.37,2013-02-23 02:56:00,
2013-02-22 21:01:00,21.5,18.5,29.95,West,275,3.5,0.0,88,0.00,CLR,,0.06,WeatherDisplay:10.37,2013-02-23 03:01:00,
2013-02-22 21:06:00,21.3,18.3,29.95,West,275,1.2,0.0,88,0.00,CLR,,0.06,WeatherDisplay:10.37,2013-02-23 03:06:00,
2013-02-22 21:11:00,21.2,17.9,29.94,West,275,0.0,0.0,87,0.00,CLR,,0.06,WeatherDisplay:10.37,2013-02-23 03:11:00,
2013-02-22 21:16:00,21.0,18.0,29.95,West,275,0.0,0.0,88,0.00,CLR,,0.06,WeatherDisplay:10.37,2013-02-23 03:16:00,
2013-02-22 21:21:00,20.9,17.9,29.95,West,275,0.0,0.0,88,0.00,CLR,,0.06,WeatherDisplay:10.37,2013-02-23 03:21:00,
2013-02-22 21:26:00,20.8,17.8,29.95,West,275,0.0,0.0,88,0.00,CLR,,0.06,WeatherDisplay:10.37,2013-02-23 03:26:00,
2013-02-22 21:31:00,20.7,17.7,29.95,West,275,0.0,0.0,88,0.00,CLR,,0.06,WeatherDisplay:10.37,2013-02-23 03:31:00,
2013-02-22 21:36:00,20.7,17.7,29.95,West,275,0.0,0.0,88,0.00,CLR,,0.06,WeatherDisplay:10.37,2013-02-23 03:36:00,
2013-02-22 21:41:00,20.6,17.6,29.95,West,275,0.0,0.0,88,0.00,CLR,,0.06,WeatherDisplay:10.37,2013-02-23 03:41:00,
2013-02-22 21:46:00,20.6,17.6,29.95,West,275,0.0,0.0,88,0.00,CLR,,0.06,WeatherDisplay:10.37,2013-02-23 03:46:00,
2013-02-22 21:51:00,20.4,17.4,29.95,West,274,3.5,3.5,88,0.00,CLR,,0.06,WeatherDisplay:10.37,2013-02-23 03:51:00,
2013-02-22 21:56:00,20.5,17.5,29.95,West,274,0.0,0.0,88,0.00,CLR,,0.06,WeatherDisplay:10.37,2013-02-23 03:56:00,
2013-02-22 22:01:00,20.6,17.6,29.95,West,273,0.0,0.0,88,0.00,CLR,,0.06,WeatherDisplay:10.37,2013-02-23 04:01:00,
2013-02-22 22:06:00,20.7,17.7,29.95,West,274,3.5,3.5,88,0.00,CLR,,0.06,WeatherDisplay:10.37,2013-02-23 04:06:00,
2013-02-22 22:11:00,20.7,17.7,29.95,West,275,3.5,3.5,88,0.00,CLR,,0.06,WeatherDisplay:10.37,2013-02-23 04:11:00,
2013-02-22 22:16:00,20.7,17.7,29.95,West,261,4.6,4.6,88,0.00,CLR,,0.06,WeatherDisplay:10.37,2013-02-23 04:16:00,
2013-02-22 22:21:00,20.8,17.8,29.95,West,262,3.5,3.5,88,0.00,CLR,,0.06,WeatherDisplay:10.37,2013-02-23 04:21:00,
2013-02-22 22:26:00,20.8,17.8,29.95,West,262,0.0,0.0,88,0.00,CLR,,0.06,WeatherDisplay:10.37,2013-02-23 04:26:00,
2013-02-22 22:31:00,20.9,17.9,29.95,West,262,1.2,0.0,88,0.00,CLR,,0.06,WeatherDisplay:10.37,2013-02-23 04:31:00,
2013-02-22 22:36:00,20.8,17.8,29.95,West,262,0.0,0.0,88,0.00,CLR,,0.06,WeatherDisplay:10.37,2013-02-23 04:36:00,
2013-02-22 22:41:00,20.7,17.7,29.95,West,261,0.0,0.0,88,0.00,CLR,,0.06,WeatherDisplay:10.37,2013-02-23 04:41:00,
2013-02-22 22:46:00,20.5,17.5,29.95,West,261,0.0,0.0,88,0.00,CLR,,0.06,WeatherDisplay:10.37,2013-02-23 04:46:00,
2013-02-22 22:51:00,20.3,17.3,29.95,West,262,0.0,0.0,88,0.00,CLR,,0.06,WeatherDisplay:10.37,2013-02-23 04:51:00,
2013-02-22 22:56:00,20.0,17.0,29.95,West,261,0.0,0.0,88,0.00,CLR,,0.06,WeatherDisplay:10.37,2013-02-23 04:56:00,
2013-02-22 23:00:00,20.0,17.0,29.95,West,262,0.0,0.0,88,0.00,CLR,,0.06,WeatherDisplay:10.37,2013-02-23 05:00:00,
2013-02-22 23:05:00,20.0,17.0,29.95,West,262,2.3,2.3,88,0.00,CLR,,0.06,WeatherDisplay:10.37,2013-02-23 05:05:00,
2013-02-22 23:10:00,19.9,16.9,29.95,West,261,0.0,0.0,88,0.00,CLR,,0.06,WeatherDisplay:10.37,2013-02-23 05:10:00,
2013-02-22 23:15:00,19.8,16.8,29.95,West,262,3.5,3.5,88,0.00,CLR,,0.06,WeatherDisplay:10.37,2013-02-23 05:15:00,
2013-02-22 23:20:00,19.8,16.8,29.95,West,262,0.0,0.0,88,0.00,CLR,,0.06,WeatherDisplay:10.37,2013-02-23 05:20:00,
2013-02-22 23:25:00,19.7,16.7,29.95,WSW,244,3.5,3.5,88,0.00,CLR,,0.06,WeatherDisplay:10.37,2013-02-23 05:25:00,
2013-02-22 23:30:00,19.7,16.7,29.95,WSW,244,2.3,2.3,88,0.00,CLR,,0.06,WeatherDisplay:10.37,2013-02-23 05:30:00,
2013-02-22 23:35:00,19.7,16.7,29.94,WSW,244,3.5,3.5,88,0.00,CLR,,0.06,WeatherDisplay:10.37,2013-02-23 05:35:00,
2013-02-22 23:40:00,19.7,16.7,29.94,WSW,244,3.5,3.5,88,0.00,CLR,,0.06,WeatherDisplay:10.37,2013-02-23 05:40:00,
2013-02-22 23:45:00,19.7,16.7,29.94,SW,233,2.3,2.3,88,0.00,CLR,,0.06,WeatherDisplay:10.37,2013-02-23 05:45:00,
2013-02-22 23:50:00,19.7,16.7,29.94,SW,221,4.6,4.6,88,0.00,CLR,,0.06,WeatherDisplay:10.37,2013-02-23 05:50:00,
2013-02-22 23:55:00,19.7,16.7,29.95,SW,231,3.5,3.5,88,0.00,CLR,,0.06,WeatherDisplay:10.37,2013-02-23 05:55:00,